עמוד ראשי
METAR-TAF:

METAR-TAF

שדות תעופה :

סלטה, ארגנטינה

קו רוחב: 24-51S, קו אורך: 065-29W, גובה: 1238מטר

תצפית מזג אוויר נוכחית

הדו"ח נערך לפני 49דקות, בשעה 01:00 UTC
רוח 7קשר מכיוון צפון
טמפרטורת 12 צלסיוס
לחות 82%
לחץ 1019 hPa
ראות 10 קילומטר או יותר
עננים פזורים בגובה 3000רגל

METAR: SASA 200100Z 35007KT 9999 SCT030 12/09 Q1019

זמן: 22:49 (01:49 UTC)

תחזית

הדו"ח נערך לפני 2 שעות ו 49דקות, בשעה 23:00 UTC
תחזית בתוקף מ 20 ב 00 UTC עד 20 ב 24 UTC
רוח 5קשר מכיוון צפון
ראות 10 קילומטר או יותר
ללא עננים שבסיסם נמוך מ 5000 רגל או קומולונימבוס
יעשה מ
20 ב 03 UTC עד 20 ב 06 UTC
ראות: 5000מטר
עננים בינוניים בגובה 1000רגל
אד
הסתברות 30% :
זמנית מ -
20 ב 06 UTC עד 20 ב 11 UTC
רוח 2קשר עם כיוונים משתנים
ראות: 0500מטר
מעונן בגובה 500רגל
טפטוף, קרעי ערפל
יעשה מ
20 ב 13 UTC עד 20 ב 16 UTC
רוח 10קשר מכיוון צפון-מזרח
ראות 10 קילומטר או יותר
עננים בינוניים בגובה 2500רגל

TAF: SASA 192300Z 2000/2024 36005KT CAVOK TX22/2018Z TN09/2010Z BECMG 2003/2006 5000 BR BKN010 PROB30 TEMPO 2006/2011 VRB02KT 0500 DZ BCFG OVC005 BECMG 2013/2016 05010KT 9999 NSW BKN025

תצפיות ותחזיות מזג אוויר לגבי יותר מ- 4,000 שדות תעופה ברחבי העולם. דוחות METAR ו- TAF.

התחנות הזמינות מסומנות בנקודות צהובות ואדומות על גבי המפה.

העבר את העכבר לנקודה הצבעונית על מנת לראות את שם התחנה.

לאחר מכן, לחץ כדי לראות את תוכן ואת תחזיות מזג האוויר.

כדי לשנות את המפה: לחץ על הכפתורים הירוקים עם הפלוס השחור כדי להתקרב; על הכפתור הירוק עם המקף כדי להתרחק; או בחיצים הירוקים למפות סמוכות.


METAR-TAF: